Time;durP1;ratioP1;P1;durP2;ratioP2;P2;SDS_P1;SDS_P2;PMS_P1;PMS_P2;Temp;Humidity;BMP_temperature;BMP_pressure;BME280_temperature;BME280_humidity;BME280_pressure;Samples;Min_cycle;Max_cycle;Signal;HPM_P1;HPM_P2
2022/04/07 00:00:35;;;;;;;9.60;4.03;;;;;;;6.99;63.08;98479.44;2033993;29;20291;-72
2022/04/07 00:01:37;;;;;;;9.75;5.03;;;;;;;7.02;62.50;98465.34;2040145;29;20291;-72
2022/04/07 00:02:42;;;;;;;7.05;4.18;;;;;;;6.72;63.98;98480.81;2033124;29;20300;-72
2022/04/07 00:03:47;;;;;;;8.32;4.40;;;;;;;6.71;63.45;98477.34;2026759;29;20776;-73
2022/04/07 00:04:52;;;;;;;8.50;4.05;;;;;;;6.87;63.16;98483.66;2033036;29;20684;-72
2022/04/07 00:05:58;;;;;;;9.85;4.45;;;;;;;7.02;62.40;98473.41;2032991;29;20899;-72
2022/04/07 00:07:06;;;;;;;7.40;3.78;;;;;;;7.22;62.79;98482.53;2016539;29;20297;-72
2022/04/07 00:08:11;;;;;;;7.18;3.85;;;;;;;7.23;62.04;98479.53;2027236;29;20285;-72
2022/04/07 00:09:18;;;;;;;9.07;4.75;;;;;;;6.97;62.66;98473.63;2026328;29;20289;-72
2022/04/07 00:10:24;;;;;;;6.85;4.00;;;;;;;6.95;62.95;98467.81;2034552;29;20740;-72
2022/04/07 00:11:32;;;;;;;8.07;4.18;;;;;;;6.87;63.15;98470.22;2039757;29;20303;-72
2022/04/07 00:12:42;;;;;;;6.03;3.90;;;;;;;6.76;62.75;98477.16;2027380;29;20413;-71
2022/04/07 00:13:44;;;;;;;6.10;3.88;;;;;;;6.77;63.00;98459.09;2025346;29;20304;-72
2022/04/07 00:14:47;;;;;;;9.40;4.25;;;;;;;6.83;63.02;98463.94;2030997;29;20672;-72
2022/04/07 00:15:52;;;;;;;9.82;4.25;;;;;;;7.00;62.62;98460.31;2040705;29;20791;-72
2022/04/07 00:16:54;;;;;;;8.93;4.15;;;;;;;7.03;62.74;98459.63;2040535;29;20302;-72
2022/04/07 00:18:01;;;;;;;8.43;3.85;;;;;;;6.81;62.85;98458.13;2041349;29;20822;-72
2022/04/07 00:19:05;;;;;;;6.78;3.90;;;;;;;6.94;62.73;98466.22;2032564;29;20695;-72
2022/04/07 00:20:09;;;;;;;8.48;4.25;;;;;;;7.00;62.25;98459.50;2034690;29;20300;-71
2022/04/07 00:21:11;;;;;;;6.38;4.18;;;;;;;6.97;62.60;98460.16;2047877;29;20271;-72
2022/04/07 00:22:24;;;;;;;5.90;3.92;;;;;;;6.84;62.90;98456.66;2041255;29;20299;-72
2022/04/07 00:23:30;;;;;;;10.73;4.10;;;;;;;6.92;62.49;98455.03;2040838;29;20672;-71
2022/04/07 00:24:34;;;;;;;8.68;4.13;;;;;;;7.00;62.52;98456.81;2033477;29;20276;-72
2022/04/07 00:25:40;;;;;;;9.30;4.28;;;;;;;7.09;62.47;98450.22;2032311;29;20291;-72
2022/04/07 00:26:46;;;;;;;8.40;4.07;;;;;;;7.14;62.08;98449.25;2017247;29;20327;-71
2022/04/07 00:27:53;;;;;;;6.97;4.03;;;;;;;7.19;62.17;98450.91;2027092;29;20304;-71
2022/04/07 00:28:54;;;;;;;8.90;4.38;;;;;;;7.16;62.07;98447.00;2032350;29;20284;-72
2022/04/07 00:29:59;;;;;;;6.40;3.90;;;;;;;7.12;62.05;98446.09;2017440;29;20662;-72
2022/04/07 00:31:02;;;;;;;8.98;4.05;;;;;;;6.92;62.59;98449.66;2017884;29;20297;-72
2022/04/07 00:32:08;;;;;;;7.93;4.05;;;;;;;6.99;61.86;98442.59;2039672;29;20275;-72
2022/04/07 00:33:15;;;;;;;6.78;3.88;;;;;;;6.78;62.95;98439.97;2046843;29;20286;-72
2022/04/07 00:34:18;;;;;;;7.88;3.95;;;;;;;6.78;62.75;98442.66;2040112;29;20303;-71
2022/04/07 00:35:28;;;;;;;7.32;3.47;;;;;;;6.73;62.41;98437.47;2039719;29;20287;-72
2022/04/07 00:36:32;;;;;;;8.00;3.55;;;;;;;6.82;62.83;98440.88;2041080;29;20287;-72
2022/04/07 00:37:37;;;;;;;6.05;3.60;;;;;;;6.79;62.86;98440.75;2031897;29;20303;-72
2022/04/07 00:38:46;;;;;;;5.93;3.60;;;;;;;6.97;62.46;98441.34;2026664;29;20288;-72
2022/04/07 00:39:51;;;;;;;6.30;3.80;;;;;;;6.75;62.56;98435.25;2040017;29;20283;-72
2022/04/07 00:40:54;;;;;;;7.75;3.97;;;;;;;6.95;62.23;98430.16;2033172;29;20296;-72
2022/04/07 00:42:00;;;;;;;6.07;3.35;;;;;;;6.86;62.18;98430.25;2017224;29;20308;-72
2022/04/07 00:43:04;;;;;;;4.43;3.38;;;;;;;6.84;62.29;98433.25;2019123;29;20282;-72
2022/04/07 00:44:09;;;;;;;6.22;3.40;;;;;;;6.88;62.45;98428.78;2024744;29;20292;-72
2022/04/07 00:45:19;;;;;;;6.35;3.30;;;;;;;6.90;62.41;98431.13;2018990;29;20300;-72
2022/04/07 00:46:21;;;;;;;10.20;3.88;;;;;;;6.86;62.45;98431.03;2025871;29;20303;-72
2022/04/07 00:47:27;;;;;;;6.97;3.55;;;;;;;7.05;61.78;98433.19;2033231;29;20292;-73
2022/04/07 00:48:30;;;;;;;5.75;3.35;;;;;;;6.87;62.04;98416.44;2032742;29;20288;-73
2022/04/07 00:49:35;;;;;;;8.48;3.20;;;;;;;6.95;62.44;98428.25;2032893;29;20665;-72
2022/04/07 00:50:38;;;;;;;7.28;3.30;;;;;;;6.89;61.80;98424.97;2046473;29;20604;-73
2022/04/07 00:51:44;;;;;;;6.63;3.13;;;;;;;7.06;61.69;98432.06;2034641;29;20311;-72
2022/04/07 00:53:00;;;;;;;6.63;3.45;;;;;;;7.12;61.34;98417.28;2032505;29;20291;-73
2022/04/07 00:54:05;;;;;;;8.50;3.30;;;;;;;7.19;61.33;98418.63;2031834;29;20288;-72
2022/04/07 00:55:12;;;;;;;6.05;3.08;;;;;;;7.29;60.75;98420.91;2032401;29;20281;-72
2022/04/07 00:56:20;;;;;;;5.15;3.03;;;;;;;7.02;61.13;98423.09;2032694;29;20680;-72
2022/04/07 00:57:24;;;;;;;5.57;3.45;;;;;;;6.95;61.75;98416.72;2033200;29;20284;-72
2022/04/07 00:58:29;;;;;;;6.68;2.97;;;;;;;6.77;61.89;98416.09;2041005;29;20276;-72
2022/04/07 00:59:34;;;;;;;8.35;3.58;;;;;;;6.85;61.94;98412.56;2032839;29;20290;-72
2022/04/07 01:00:39;;;;;;;6.90;3.33;;;;;;;7.04;62.03;98414.72;2033197;29;20362;-72
2022/04/07 01:01:42;;;;;;;7.50;3.10;;;;;;;6.96;61.90;98407.53;2041067;29;20279;-71
2022/04/07 01:02:43;;;;;;;5.80;3.00;;;;;;;6.75;62.65;98408.38;2041016;29;20312;-72
2022/04/07 01:03:48;;;;;;;7.43;2.95;;;;;;;6.78;62.88;98413.09;2024609;29;20289;-72
2022/04/07 01:04:50;;;;;;;5.03;2.97;;;;;;;6.65;62.72;98409.56;2018093;29;20302;-72
2022/04/07 01:05:51;;;;;;;5.22;3.38;;;;;;;6.86;62.53;98404.13;2032695;29;20296;-71
2022/04/07 01:06:54;;;;;;;8.38;3.50;;;;;;;6.82;61.99;98402.47;2036190;29;20295;-72
2022/04/07 01:07:56;;;;;;;7.38;3.88;;;;;;;6.81;62.43;98396.31;2033315;29;20324;-72
2022/04/07 01:08:58;;;;;;;6.60;3.10;;;;;;;6.80;62.23;98394.72;2032475;29;20303;-72
2022/04/07 01:10:00;;;;;;;6.53;2.65;;;;;;;6.80;62.40;98400.09;2033230;29;20307;-72
2022/04/07 01:11:05;;;;;;;6.95;3.15;;;;;;;6.75;61.98;98400.31;2033964;29;20645;-73
2022/04/07 01:12:09;;;;;;;3.83;2.70;;;;;;;6.58;62.04;98389.72;2040032;29;20275;-72
2022/04/07 01:13:15;;;;;;;7.55;2.70;;;;;;;6.46;62.96;98401.22;2040431;29;20291;-72
2022/04/07 01:14:23;;;;;;;6.15;3.13;;;;;;;6.69;63.29;98393.59;2040309;29;20282;-72
2022/04/07 01:15:28;;;;;;;4.68;2.70;;;;;;;6.85;62.16;98391.81;2032643;29;20298;-71
2022/04/07 01:16:34;;;;;;;4.88;3.00;;;;;;;6.60;62.90;98379.44;2026140;29;20285;-71
2022/04/07 01:17:38;;;;;;;7.05;3.00;;;;;;;6.55;62.98;98383.09;2032503;29;20315;-70
2022/04/07 01:18:48;;;;;;;3.70;2.35;;;;;;;6.38;63.70;98378.69;2031530;29;20311;-70
2022/04/07 01:19:49;;;;;;;5.68;3.05;;;;;;;6.56;63.64;98376.63;2026073;29;20622;-70
2022/04/07 01:20:54;;;;;;;5.93;2.80;;;;;;;6.68;62.93;98373.97;2017789;29;20277;-72
2022/04/07 01:22:00;;;;;;;5.63;2.63;;;;;;;6.67;62.63;98374.31;2026051;29;20291;-71
2022/04/07 01:23:07;;;;;;;5.57;3.08;;;;;;;6.64;62.71;98375.75;2041179;29;20307;-71
2022/04/07 01:24:13;;;;;;;8.05;3.08;;;;;;;6.68;62.09;98378.56;2033473;29;20276;-71
2022/04/07 01:25:16;;;;;;;7.60;2.90;;;;;;;6.73;62.79;98375.66;2032873;29;20304;-71
2022/04/07 01:26:19;;;;;;;9.07;3.00;;;;;;;6.79;62.31;98371.66;2025345;29;20299;-71
2022/04/07 01:27:24;;;;;;;5.50;2.42;;;;;;;6.65;62.57;98374.63;2040085;29;20276;-70
2022/04/07 01:28:26;;;;;;;6.78;3.47;;;;;;;6.68;62.64;98381.25;2040317;29;20668;-71
2022/04/07 01:29:29;;;;;;;4.82;2.55;;;;;;;6.79;62.34;98368.19;2036070;29;20291;-71
2022/04/07 01:30:34;;;;;;;7.32;3.22;;;;;;;6.62;62.81;98369.94;2048376;29;20644;-71
2022/04/07 01:31:36;;;;;;;4.63;2.78;;;;;;;6.61;63.07;98373.72;2040265;29;20284;-71
2022/04/07 01:32:49;;;;;;;4.70;2.85;;;;;;;6.58;62.97;98376.28;2037117;29;20279;-71
2022/04/07 01:33:52;;;;;;;4.95;2.45;;;;;;;6.66;62.36;98372.75;2047511;29;20850;-71
2022/04/07 01:35:02;;;;;;;7.03;3.10;;;;;;;6.57;63.12;98374.72;2040421;29;20815;-71
2022/04/07 01:36:06;;;;;;;4.28;2.80;;;;;;;6.71;62.62;98372.50;2025307;29;20303;-72
2022/04/07 01:37:12;;;;;;;4.03;2.45;;;;;;;6.76;62.41;98372.31;2019315;29;20297;-71
2022/04/07 01:38:16;;;;;;;6.18;2.80;;;;;;;6.70;62.35;98379.03;2032994;29;20307;-72
2022/04/07 01:39:25;;;;;;;5.28;2.40;;;;;;;6.83;62.17;98367.16;2032781;29;20292;-72
2022/04/07 01:40:35;;;;;;;4.43;2.60;;;;;;;6.81;62.09;98379.38;2028475;29;20284;-71
2022/04/07 01:41:43;;;;;;;5.70;2.70;;;;;;;6.82;62.13;98373.66;2034988;29;20063;-72
2022/04/07 01:42:54;;;;;;;5.40;2.50;;;;;;;6.74;62.83;98369.16;2041557;29;20044;-72
2022/04/07 01:44:00;;;;;;;5.85;2.90;;;;;;;6.87;61.82;98372.66;2041970;29;20622;-72
2022/04/07 01:45:07;;;;;;;7.78;2.60;;;;;;;6.83;62.38;98383.28;2042168;29;20040;-71
2022/04/07 01:46:12;;;;;;;6.30;2.50;;;;;;;6.85;61.44;98374.91;2034035;29;20288;-72
2022/04/07 01:47:19;;;;;;;6.70;2.65;;;;;;;6.61;62.54;98381.00;2027598;29;20300;-70
2022/04/07 01:48:26;;;;;;;8.65;2.65;;;;;;;6.64;62.07;98375.75;2035101;29;20676;-70
2022/04/07 01:49:36;;;;;;;4.78;2.40;;;;;;;6.41;62.52;98372.66;2011626;29;20124;-69
2022/04/07 01:50:38;;;;;;;5.90;2.47;;;;;;;6.53;62.95;98376.50;2022617;29;20313;-70
2022/04/07 01:51:45;;;;;;;7.13;2.50;;;;;;;6.57;62.87;98369.34;2046567;28;20363;-70
2022/04/07 01:52:49;;;;;;;5.88;2.45;;;;;;;6.70;62.45;98379.03;2034868;29;20292;-70
2022/04/07 01:53:54;;;;;;;6.65;2.40;;;;;;;6.82;62.32;98381.72;2026948;29;20293;-70
2022/04/07 01:55:01;;;;;;;7.80;2.80;;;;;;;6.81;61.95;98369.41;2042102;29;20294;-70
2022/04/07 01:56:07;;;;;;;4.32;2.30;;;;;;;6.88;62.13;98372.34;2050174;28;20286;-70
2022/04/07 01:57:15;;;;;;;2.77;2.00;;;;;;;6.74;62.11;98379.91;2041836;29;20810;-70
2022/04/07 01:58:18;;;;;;;4.32;2.70;;;;;;;6.71;62.08;98372.50;2042328;29;20295;-70
2022/04/07 01:59:22;;;;;;;6.55;2.60;;;;;;;6.59;61.96;98377.84;2031590;29;20296;-71
2022/04/07 02:00:27;;;;;;;5.82;2.53;;;;;;;6.69;62.13;98380.16;2027148;29;20304;-70
2022/04/07 02:01:33;;;;;;;5.35;2.65;;;;;;;6.49;62.26;98375.59;2027554;29;20689;-70
2022/04/07 02:02:38;;;;;;;4.47;2.30;;;;;;;6.41;62.58;98361.91;2034726;28;20296;-70
2022/04/07 02:03:45;;;;;;;5.57;3.13;;;;;;;6.30;62.67;98374.16;2048592;29;20291;-70
2022/04/07 02:05:11;;;;;;;5.70;2.30;;;;;;;6.56;62.48;98370.47;2041916;29;20299;-70
2022/04/07 02:06:18;;;;;;;4.78;2.40;;;;;;;6.43;62.92;98365.06;2045187;29;20282;-70
2022/04/07 02:07:27;;;;;;;4.25;2.35;;;;;;;6.46;62.91;98368.19;2048765;28;20530;-69
2022/04/07 02:08:29;;;;;;;5.63;2.55;;;;;;;6.60;62.27;98372.16;2050474;29;20655;-70
2022/04/07 02:09:33;;;;;;;3.33;2.08;;;;;;;6.65;61.78;98371.16;2041284;29;20291;-70
2022/04/07 02:10:40;;;;;;;5.75;2.47;;;;;;;6.64;61.95;98369.59;2042506;29;20298;-70
2022/04/07 02:11:44;;;;;;;5.25;2.88;;;;;;;6.60;61.97;98364.09;2041270;29;20294;-70
2022/04/07 02:12:49;;;;;;;4.60;2.40;;;;;;;6.53;62.16;98371.94;2042636;29;20802;-70
2022/04/07 02:13:56;;;;;;;7.05;2.25;;;;;;;6.56;62.29;98365.09;2049251;29;20814;-69
2022/04/07 02:15:01;;;;;;;3.60;2.28;;;;;;;6.55;62.00;98368.91;2043092;29;20299;-70
2022/04/07 02:16:08;;;;;;;4.95;2.33;;;;;;;6.50;62.74;98359.16;2048966;29;20291;-70
2022/04/07 02:17:20;;;;;;;6.43;2.58;;;;;;;6.52;62.39;98364.19;2049588;29;20294;-70
2022/04/07 02:18:27;;;;;;;5.15;2.35;;;;;;;6.47;62.58;98361.72;2050458;28;20058;-70
2022/04/07 02:19:32;;;;;;;5.43;2.58;;;;;;;6.36;62.46;98358.66;2048336;28;20055;-70
2022/04/07 02:20:35;;;;;;;3.58;2.45;;;;;;;6.48;62.65;98366.75;2041635;29;20303;-70
2022/04/07 02:21:37;;;;;;;7.03;2.72;;;;;;;6.54;61.89;98348.53;2034903;29;20668;-72
2022/04/07 02:22:40;;;;;;;5.10;2.47;;;;;;;6.61;61.43;98356.81;2041630;29;20287;-72
2022/04/07 02:23:43;;;;;;;7.05;3.28;;;;;;;6.54;61.78;98359.28;2049351;29;20303;-71
2022/04/07 02:24:48;;;;;;;3.08;2.40;;;;;;;6.48;62.29;98355.22;2049819;28;20294;-72
2022/04/07 02:25:56;;;;;;;5.22;2.40;;;;;;;6.61;61.76;98354.13;2048961;29;20793;-73
2022/04/07 02:27:01;;;;;;;4.50;2.28;;;;;;;6.73;61.92;98348.78;2041767;29;20625;-72
2022/04/07 02:28:04;;;;;;;7.07;2.63;;;;;;;6.77;61.57;98351.59;2034424;29;20292;-72
2022/04/07 02:29:14;;;;;;;3.75;2.38;;;;;;;6.89;60.86;98349.69;2033885;29;20295;-72
2022/04/07 02:30:23;;;;;;;6.97;2.40;;;;;;;6.70;61.24;98344.06;2036302;29;20318;-71
2022/04/07 02:31:25;;;;;;;3.97;2.40;;;;;;;6.79;61.08;98347.47;2033989;29;20294;-71
2022/04/07 02:32:28;;;;;;;6.10;2.60;;;;;;;6.67;61.24;98353.59;2025290;29;20432;-71
2022/04/07 02:33:30;;;;;;;6.00;2.65;;;;;;;6.54;62.05;98345.84;2026712;29;20812;-71
2022/04/07 02:34:40;;;;;;;3.92;2.20;;;;;;;6.48;61.73;98350.63;2026846;29;20355;-71
2022/04/07 02:35:44;;;;;;;3.60;2.40;;;;;;;6.65;61.54;98355.03;2042830;29;20303;-71
2022/04/07 02:36:51;;;;;;;4.53;2.40;;;;;;;6.75;61.52;98353.81;2048914;29;20047;-71
2022/04/07 02:38:00;;;;;;;6.35;2.50;;;;;;;6.41;62.48;98347.69;2043048;29;20283;-71
2022/04/07 02:39:02;;;;;;;3.97;2.25;;;;;;;6.36;62.22;98348.69;2042078;29;20303;-71
2022/04/07 02:40:05;;;;;;;3.42;2.40;;;;;;;6.43;62.53;98348.94;2033015;29;20283;-71
2022/04/07 02:41:10;;;;;;;3.78;2.50;;;;;;;6.71;61.61;98337.56;2033611;29;20642;-71
2022/04/07 02:42:12;;;;;;;3.88;2.40;;;;;;;6.65;61.75;98349.66;2033827;29;20327;-70
2022/04/07 02:43:18;;;;;;;5.28;2.47;;;;;;;6.56;61.95;98351.66;2035417;29;20323;-70
2022/04/07 02:44:20;;;;;;;6.65;2.60;;;;;;;6.47;61.78;98354.44;2042192;29;20298;-70
2022/04/07 02:45:24;;;;;;;2.67;2.38;;;;;;;6.68;61.43;98349.78;2041812;29;20307;-70
2022/04/07 02:46:27;;;;;;;4.78;2.40;;;;;;;6.53;61.39;98337.00;2041762;29;20298;-70
2022/04/07 02:47:35;;;;;;;4.85;2.35;;;;;;;6.42;61.79;98331.25;2040995;29;20292;-70
2022/04/07 02:48:40;;;;;;;3.78;2.33;;;;;;;6.59;61.96;98350.97;2027336;29;20277;-70
2022/04/07 02:49:43;;;;;;;4.55;2.20;;;;;;;6.77;61.07;98341.63;2025804;29;20301;-70
2022/04/07 02:50:50;;;;;;;5.43;2.60;;;;;;;6.66;61.36;98341.28;2033580;29;20303;-70
2022/04/07 02:51:52;;;;;;;3.95;2.58;;;;;;;6.51;61.55;98341.91;2046424;29;20303;-70
2022/04/07 02:52:55;;;;;;;5.55;2.58;;;;;;;6.70;61.21;98345.97;2034211;29;20292;-70
2022/04/07 02:54:01;;;;;;;6.82;2.70;;;;;;;6.81;60.66;98341.72;2034156;29;20357;-70
2022/04/07 02:55:10;;;;;;;5.30;2.42;;;;;;;6.88;61.31;98347.38;2041637;29;20797;-70
2022/04/07 02:56:13;;;;;;;;;;;;;;;6.92;60.38;98348.25;2035528;29;20280;-70
2022/04/07 02:57:20;;;;;;;4.10;2.30;;;;;;;6.65;61.06;98339.69;2040856;29;19944;-69
2022/04/07 02:58:25;;;;;;;5.68;2.42;;;;;;;6.75;60.74;98337.69;2041614;29;20307;-70
2022/04/07 02:59:32;;;;;;;3.97;2.05;;;;;;;6.85;60.97;98348.81;2038908;29;20291;-69
2022/04/07 03:00:34;;;;;;;4.00;2.45;;;;;;;6.89;60.68;98338.94;2049271;29;20306;-69
2022/04/07 03:01:37;;;;;;;5.82;2.45;;;;;;;6.58;61.21;98335.97;2048437;29;20286;-70
2022/04/07 03:02:40;;;;;;;4.82;2.28;;;;;;;6.53;61.35;98330.81;2049717;28;20286;-70
2022/04/07 03:03:43;;;;;;;4.82;2.50;;;;;;;6.47;61.53;98327.56;2048686;29;20305;-69
2022/04/07 03:04:44;;;;;;;2.85;2.25;;;;;;;6.54;62.28;98327.03;2041430;29;20752;-69
2022/04/07 03:05:47;;;;;;;4.28;2.25;;;;;;;6.52;61.79;98323.88;2049411;28;20387;-70
2022/04/07 03:06:49;;;;;;;5.68;2.20;;;;;;;6.64;62.22;98318.53;2033648;29;21040;-69
2022/04/07 03:07:55;;;;;;;5.75;2.53;;;;;;;6.71;60.79;98326.03;2026786;29;20296;-70
2022/04/07 03:08:59;;;;;;;5.40;2.33;;;;;;;6.50;62.25;98326.09;2034351;29;20668;-70
2022/04/07 03:10:07;;;;;;;4.93;2.45;;;;;;;6.70;61.04;98321.78;2034079;29;20300;-69
2022/04/07 03:11:10;;;;;;;6.25;2.30;;;;;;;6.40;61.97;98317.38;2027260;29;20797;-69
2022/04/07 03:12:17;;;;;;;4.20;2.35;;;;;;;6.32;62.13;98320.91;2026935;29;20288;-69
2022/04/07 03:13:21;;;;;;;5.50;2.55;;;;;;;6.21;62.72;98315.16;2041754;29;20400;-69
2022/04/07 03:14:28;;;;;;;4.82;2.83;;;;;;;6.48;62.35;98320.28;2041200;29;20291;-70
2022/04/07 03:15:30;;;;;;;5.68;2.22;;;;;;;6.68;61.44;98327.50;2041927;29;20299;-70
2022/04/07 03:16:36;;;;;;;5.18;2.55;;;;;;;6.61;61.76;98321.88;2041109;29;20288;-69
2022/04/07 03:17:38;;;;;;;5.75;2.80;;;;;;;6.69;60.86;98318.34;2041478;29;20339;-69
2022/04/07 03:18:41;;;;;;;3.85;2.40;;;;;;;6.79;60.78;98323.25;2039143;29;20308;-70
2022/04/07 03:19:45;;;;;;;5.78;2.58;;;;;;;6.76;61.19;98318.56;2026088;29;20309;-69
2022/04/07 03:20:51;;;;;;;4.07;2.53;;;;;;;6.71;60.66;98313.38;2035178;29;20272;-70
2022/04/07 03:21:55;;;;;;;4.95;2.67;;;;;;;6.66;60.90;98305.56;2049265;29;20648;-69
2022/04/07 03:22:57;;;;;;;6.32;2.78;;;;;;;6.43;61.81;98311.34;2048638;29;20282;-69
2022/04/07 03:24:04;;;;;;;3.78;2.38;;;;;;;6.49;62.06;98311.09;2041267;29;20312;-69
2022/04/07 03:25:11;;;;;;;4.90;2.72;;;;;;;6.41;62.29;98299.34;2026694;29;20363;-69
2022/04/07 03:26:15;;;;;;;4.82;2.65;;;;;;;6.34;62.47;98313.31;2018994;29;20296;-70
2022/04/07 03:27:17;;;;;;;4.50;2.92;;;;;;;6.24;62.48;98313.69;2027034;29;20293;-69
2022/04/07 03:28:20;;;;;;;3.72;2.50;;;;;;;6.30;62.89;98311.63;2040589;29;20288;-69
2022/04/07 03:29:28;;;;;;;6.03;2.42;;;;;;;6.40;62.33;98317.38;2041036;29;20282;-69
2022/04/07 03:30:30;;;;;;;4.25;2.55;;;;;;;6.31;62.07;98314.00;2048453;29;20300;-69
2022/04/07 03:31:32;;;;;;;5.47;2.67;;;;;;;6.51;61.66;98317.72;2033415;29;20366;-69
2022/04/07 03:32:36;;;;;;;5.50;2.40;;;;;;;6.50;61.78;98312.66;2026356;29;20281;-69
2022/04/07 03:33:46;;;;;;;;;;;;;;;6.46;62.45;98314.47;2042779;29;20294;-69
2022/04/07 03:34:53;;;;;;;5.50;2.63;;;;;;;6.52;61.76;98305.06;2048462;29;19922;-69
2022/04/07 03:35:58;;;;;;;5.63;2.78;;;;;;;6.53;61.93;98309.31;2049154;28;20287;-69
2022/04/07 03:37:03;;;;;;;6.50;2.65;;;;;;;6.44;62.04;98322.88;2055693;28;20279;-69
2022/04/07 03:38:10;;;;;;;5.32;2.67;;;;;;;6.29;61.84;98310.84;2056632;28;20361;-69
2022/04/07 03:39:16;;;;;;;4.45;2.58;;;;;;;6.44;62.05;98307.53;2054938;28;20682;-69
2022/04/07 03:40:19;;;;;;;6.25;2.45;;;;;;;6.42;62.28;98309.75;2041198;29;20296;-69
2022/04/07 03:41:24;;;;;;;7.47;2.78;;;;;;;6.53;62.53;98314.69;2041631;29;20807;-69
2022/04/07 03:42:26;;;;;;;6.88;2.72;;;;;;;6.65;61.22;98312.03;2048976;28;20356;-69
2022/04/07 03:43:34;;;;;;;9.60;2.47;;;;;;;6.62;61.37;98297.38;2032975;29;20292;-69
2022/04/07 03:44:37;;;;;;;7.30;3.17;;;;;;;6.26;62.48;98299.94;2028834;29;20795;-69
2022/04/07 03:45:40;;;;;;;6.22;2.47;;;;;;;6.13;63.33;98313.31;2041013;29;20485;-69
2022/04/07 03:46:42;;;;;;;5.47;2.55;;;;;;;6.28;62.74;98301.22;2033298;29;20303;-69
2022/04/07 03:47:45;;;;;;;6.82;2.90;;;;;;;6.41;62.16;98296.66;2026221;29;20304;-69
2022/04/07 03:48:50;;;;;;;7.28;2.70;;;;;;;6.54;62.62;98305.53;2040835;29;20303;-70
2022/04/07 03:49:53;;;;;;;4.97;2.90;;;;;;;6.52;62.13;98303.16;2041446;29;20361;-69
2022/04/07 03:50:56;;;;;;;6.45;2.85;;;;;;;6.42;61.77;98299.00;2034283;29;20295;-69
2022/04/07 03:52:01;;;;;;;7.15;2.95;;;;;;;6.38;61.90;98298.09;2020899;29;20349;-69
2022/04/07 03:53:04;;;;;;;5.78;3.05;;;;;;;6.28;62.81;98303.13;2026238;29;20642;-71
2022/04/07 03:54:09;;;;;;;7.30;2.97;;;;;;;6.08;63.12;98299.31;2039843;29;20302;-70
2022/04/07 03:55:16;;;;;;;6.53;3.13;;;;;;;6.25;62.29;98304.53;2041777;29;20652;-72
2022/04/07 03:56:18;;;;;;;6.68;2.70;;;;;;;6.18;62.46;98299.72;2056818;28;20301;-71
2022/04/07 03:57:25;;;;;;;5.97;3.05;;;;;;;6.17;62.88;98302.72;2056532;28;20293;-71
2022/04/07 03:58:30;;;;;;;6.82;3.00;;;;;;;6.13;62.83;98307.19;2048268;29;20651;-71
2022/04/07 03:59:38;;;;;;;6.05;2.83;;;;;;;6.17;62.83;98302.72;2040923;29;20299;-71
2022/04/07 04:00:40;;;;;;;8.00;2.80;;;;;;;6.19;62.94;98300.50;2026165;29;20316;-71
2022/04/07 04:01:44;;;;;;;5.38;2.88;;;;;;;6.12;63.14;98306.41;2034546;29;20287;-71
2022/04/07 04:02:50;;;;;;;6.00;3.17;;;;;;;6.23;62.62;98301.38;2055739;28;20290;-71
2022/04/07 04:03:54;;;;;;;6.35;2.90;;;;;;;6.30;63.31;98301.66;2046879;29;20306;-71
2022/04/07 04:04:56;;;;;;;7.05;2.80;;;;;;;6.57;62.51;98297.59;2047010;29;20291;-72
2022/04/07 04:06:02;;;;;;;4.95;2.50;;;;;;;6.20;62.38;98299.38;2046901;29;21112;-73
2022/04/07 04:07:10;;;;;;;5.65;2.78;;;;;;;6.00;63.52;98286.78;2040283;29;20295;-72
2022/04/07 04:08:12;;;;;;;8.50;2.85;;;;;;;6.09;63.08;98292.84;2046982;29;20302;-71
2022/04/07 04:09:20;;;;;;;6.78;3.00;;;;;;;5.86;63.63;98287.03;2047553;29;20061;-72
2022/04/07 04:10:23;;;;;;;6.80;2.90;;;;;;;6.00;63.62;98282.19;2047373;28;20838;-71
2022/04/07 04:11:26;;;;;;;7.32;2.75;;;;;;;6.14;63.41;98298.00;2046913;29;20302;-70
2022/04/07 04:12:29;;;;;;;7.55;2.70;;;;;;;6.33;62.60;98287.56;2047420;29;20294;-71
2022/04/07 04:13:36;;;;;;;6.30;2.83;;;;;;;6.31;62.83;98291.69;2047638;29;20802;-71
2022/04/07 04:14:45;;;;;;;5.70;2.60;;;;;;;6.25;62.59;98299.16;2047597;29;20433;-71
2022/04/07 04:15:50;;;;;;;4.93;2.90;;;;;;;6.39;62.44;98296.97;2040316;29;20043;-71
2022/04/07 04:16:57;;;;;;;4.88;2.72;;;;;;;6.29;62.09;98297.41;2039104;29;20303;-69
2022/04/07 04:18:02;;;;;;;6.00;2.80;;;;;;;6.26;62.40;98295.38;2033356;29;20295;-69
2022/04/07 04:19:08;;;;;;;7.30;3.05;;;;;;;6.40;61.97;98284.34;2024408;29;20311;-68
2022/04/07 04:20:12;;;;;;;4.57;2.40;;;;;;;6.41;61.71;98293.97;2026593;29;20301;-69
2022/04/07 04:21:19;;;;;;;4.82;2.35;;;;;;;6.22;62.70;98286.41;2039612;29;20795;-69
2022/04/07 04:22:26;;;;;;;5.05;2.70;;;;;;;6.25;62.70;98282.28;2046795;29;20306;-70
2022/04/07 04:23:28;;;;;;;5.38;2.75;;;;;;;6.36;62.01;98286.13;2032450;29;20783;-70
2022/04/07 04:24:32;;;;;;;6.13;2.63;;;;;;;6.29;62.29;98289.34;2024248;29;20323;-70
2022/04/07 04:25:41;;;;;;;6.90;2.95;;;;;;;6.20;62.74;98285.94;2039611;29;20307;-70
2022/04/07 04:26:48;;;;;;;4.25;2.47;;;;;;;6.08;62.79;98288.56;2048126;28;20298;-70
2022/04/07 04:27:50;;;;;;;9.98;2.70;;;;;;;6.31;62.71;98284.44;2047192;29;20765;-70
2022/04/07 04:28:59;;;;;;;7.35;2.70;;;;;;;6.27;62.64;98290.78;2047589;28;20651;-71
2022/04/07 04:30:10;;;;;;;7.65;2.72;;;;;;;6.48;62.22;98291.53;2047489;28;20294;-70
2022/04/07 04:31:11;;;;;;;8.48;3.35;;;;;;;6.58;61.10;98284.94;2047167;29;20313;-71
2022/04/07 04:32:16;;;;;;;7.72;2.85;;;;;;;6.52;61.97;98287.03;2045874;29;20298;-71
2022/04/07 04:33:18;;;;;;;6.68;2.72;;;;;;;6.53;61.53;98293.19;2046514;29;20295;-71
2022/04/07 04:34:20;;;;;;;5.25;3.03;;;;;;;6.26;61.68;98283.84;2038008;29;20306;-72
2022/04/07 04:35:22;;;;;;;7.25;3.03;;;;;;;6.49;61.72;98278.88;2031152;29;20939;-71
2022/04/07 04:36:28;;;;;;;7.75;2.97;;;;;;;6.35;62.18;98282.66;2046598;29;20695;-71
2022/04/07 04:37:33;;;;;;;5.55;2.85;;;;;;;6.49;62.00;98285.03;2046398;29;20302;-71
2022/04/07 04:38:35;;;;;;;5.20;3.17;;;;;;;6.49;61.82;98281.56;2038589;29;20299;-70
2022/04/07 04:39:40;;;;;;;4.90;2.70;;;;;;;6.40;61.82;98278.97;2039443;28;20307;-71
2022/04/07 04:40:43;;;;;;;4.40;2.50;;;;;;;6.49;61.72;98281.56;2044944;28;20351;-72
2022/04/07 04:41:48;;;;;;;8.27;2.75;;;;;;;6.63;61.19;98284.72;2042763;29;20279;-71
2022/04/07 04:42:52;;;;;;;4.65;2.50;;;;;;;6.52;61.39;98284.34;2038048;29;20750;-71
2022/04/07 04:43:55;;;;;;;5.35;2.65;;;;;;;6.51;61.58;98284.72;2037670;29;20296;-72
2022/04/07 04:44:56;;;;;;;5.30;2.85;;;;;;;6.56;61.51;98284.47;2032921;29;20283;-71
2022/04/07 04:45:59;;;;;;;7.35;2.80;;;;;;;6.72;60.90;98273.84;2031020;29;20307;-71
2022/04/07 04:47:02;;;;;;;5.82;2.90;;;;;;;6.68;61.13;98279.91;2039338;29;20299;-70
2022/04/07 04:48:04;;;;;;;6.95;2.35;;;;;;;6.67;60.47;98272.19;2036483;29;20294;-70
2022/04/07 04:49:08;;;;;;;4.10;2.53;;;;;;;6.68;60.91;98284.50;2023214;29;21050;-70
2022/04/07 04:50:15;;;;;;;5.07;2.78;;;;;;;6.75;60.53;98283.94;2023145;29;20309;-69
2022/04/07 04:51:19;;;;;;;5.95;2.83;;;;;;;6.73;60.30;98280.81;2013834;29;20298;-69
2022/04/07 04:52:24;;;;;;;11.18;3.10;;;;;;;6.98;60.65;98281.59;2024450;29;20305;-69
2022/04/07 04:53:27;;;;;;;7.20;2.78;;;;;;;6.75;61.04;98283.94;2038641;29;20298;-69
2022/04/07 04:54:34;;;;;;;8.23;2.90;;;;;;;6.85;60.04;98278.91;2039374;29;20780;-69
2022/04/07 04:55:37;;;;;;;6.28;2.42;;;;;;;6.77;60.70;98279.78;2039364;29;20330;-69
2022/04/07 04:56:39;;;;;;;10.30;3.30;;;;;;;6.75;60.27;98284.75;2031256;29;20720;-69
2022/04/07 04:57:46;;;;;;;4.82;2.58;;;;;;;7.09;59.64;98282.72;2032341;29;20288;-69
2022/04/07 04:58:48;;;;;;;4.93;2.33;;;;;;;7.01;59.72;98276.34;2038799;29;20409;-70
2022/04/07 04:59:52;;;;;;;8.30;2.70;;;;;;;7.17;59.58;98286.41;2031594;29;20307;-69
2022/04/07 05:00:59;;;;;;;5.13;3.08;;;;;;;7.14;59.17;98282.50;2031330;29;20313;-70
2022/04/07 05:03:11;;;;;;;5.38;2.42;;;;;;;7.12;59.50;98282.03;2011731;27;3286579;-70
2022/04/07 05:04:13;;;;;;;6.45;3.45;;;;;;;7.32;59.73;98283.81;2118597;28;20815;-70
2022/04/07 05:05:18;;;;;;;5.65;2.70;;;;;;;7.41;58.78;98278.28;2110035;28;20434;-72
2022/04/07 05:06:24;;;;;;;6.70;3.28;;;;;;;7.23;59.34;98288.53;2077591;28;20292;-70
2022/04/07 05:07:29;;;;;;;9.30;2.63;;;;;;;7.14;59.06;98291.34;2088577;28;20288;-71
2022/04/07 05:08:32;;;;;;;4.88;2.30;;;;;;;7.29;59.55;98289.88;2103004;28;20294;-71
2022/04/07 05:09:35;;;;;;;5.28;2.60;;;;;;;7.13;58.75;98276.34;2094152;28;20294;-70
2022/04/07 05:10:39;;;;;;;7.68;2.95;;;;;;;6.84;59.68;98280.03;2086665;28;21056;-70